Pagina principale
METAR-TAF:

METAR-TAF

Aeroporti :

Buochs, Svizzera

latitudine: 46-58-28N, longitudine: 8-23-49E, altezza: 449 m

Osservazione

Il bollettino è stato emesso 17 minuti fa, alle 19:20 UTC
Vento 4 kt da ovest, variando fra sud/sud-ovest e ovest/nord-ovest
Temperature 17°C
Umidità 52%
Pressione 1022 hPa
Visibilità 10 km o più
nessuna nube inferiore a 1500 m e nessun cumulonembo

METAR: LSZC 231920Z AUTO 26004KT 200V300 CAVOK 17/07 Q1022

Ora: 21:37 (19:37 UTC)

Previsione

Il bollettino è stato emesso 29 ore e 12 minuti fa, alle 14:25 UTC
Previsione valida dal 22 alle 15 UTC al 22 alle 24 UTC
Vento 3 kt da direzioni variabili
Visibilità 10 km o più
nessuna nube inferiore a 1500 m e nessun cumulonembo
Temporaneamente
dal 22 alle 15 UTC al 22 alle 19 UTC
Visibilità 10 km o più
Poco nuvoloso ad un'altezza di 6000 ft

TAF: LSZC 221425Z 2215/2224 VRB03KT CAVOK TEMPO 2215/2219 9999 FEW060

Osservazioni e previsioni meteorologiche di più di 4000 aeroporti (messaggi METAR e TAF).

Le stazioni disponibili sono rappresentate dai dischi gialli e rossi sulla carta.

Puntare il mouse per vedere il nome della stazione.

Clicca sopra per visualizzare le osservazioni e previsioni meteorologiche.

Per cambiare la mappa : fare clic sui pulsanti verdi con una croce nera per ingrandire, il pulsante verde con un trattino per diminuire, o sulla freccia verde per le mappe adiacenti.


METAR-TAF: